createdAt,value
2018-09-25T00:02:23.515Z,9.73
2018-09-25T00:04:57.138Z,9.72
2018-09-25T00:07:30.669Z,9.68
2018-09-25T00:10:04.196Z,9.64
2018-09-25T00:12:38.119Z,9.61
2018-09-25T00:15:11.952Z,9.55
2018-09-25T00:17:45.558Z,9.53
2018-09-25T00:20:19.024Z,9.54
2018-09-25T00:22:52.677Z,9.48
2018-09-25T00:25:26.422Z,9.49
2018-09-25T00:27:59.940Z,9.57
2018-09-25T00:30:33.667Z,9.56
2018-09-25T00:33:07.178Z,9.57
2018-09-25T00:35:40.955Z,9.60
2018-09-25T00:38:14.509Z,9.59
2018-09-25T00:40:48.220Z,9.54
2018-09-25T00:43:21.998Z,9.45
2018-09-25T00:45:55.714Z,9.44
2018-09-25T00:48:29.283Z,9.39
2018-09-25T00:51:02.924Z,9.40
2018-09-25T00:53:36.438Z,9.43
2018-09-25T00:56:10.052Z,9.45
2018-09-25T00:58:43.549Z,9.42
2018-09-25T01:01:17.289Z,9.41
2018-09-25T01:03:50.978Z,9.38
2018-09-25T01:06:24.732Z,9.39
2018-09-25T01:08:58.532Z,9.41
2018-09-25T01:11:32.112Z,9.41
2018-09-25T01:14:05.738Z,9.46
2018-09-25T01:16:39.461Z,9.45
2018-09-25T01:19:13.025Z,9.37
2018-09-25T01:21:46.749Z,9.32
2018-09-25T01:24:20.334Z,9.31
2018-09-25T01:26:53.917Z,9.35
2018-09-25T01:29:27.607Z,9.35
2018-09-25T01:32:01.182Z,9.32
2018-09-25T01:34:34.703Z,9.30
2018-09-25T01:37:08.637Z,9.34
2018-09-25T01:39:42.301Z,9.34
2018-09-25T01:45:03.019Z,9.15
2018-09-25T01:47:36.520Z,9.17
2018-09-25T01:50:10.389Z,9.22
2018-09-25T01:52:44.037Z,9.22
2018-09-25T01:55:17.761Z,9.22
2018-09-25T01:57:51.517Z,9.16
2018-09-25T02:00:25.435Z,9.20
2018-09-25T02:02:58.977Z,9.12
2018-09-25T02:05:32.735Z,9.08
2018-09-25T02:08:06.421Z,9.11
2018-09-25T02:10:40.125Z,9.12
2018-09-25T02:13:13.776Z,9.13
2018-09-25T02:15:47.406Z,9.13
2018-09-25T02:18:20.979Z,9.16
2018-09-25T02:20:54.651Z,9.17
2018-09-25T02:23:28.496Z,9.20
2018-09-25T02:26:02.030Z,9.18
2018-09-25T02:28:35.747Z,9.11
2018-09-25T02:31:09.695Z,9.07
2018-09-25T02:33:43.432Z,9.04
2018-09-25T02:36:17.109Z,9.02
2018-09-25T02:38:50.753Z,8.97
2018-09-25T02:41:24.365Z,8.96
2018-09-25T02:43:57.973Z,8.97
2018-09-25T02:46:31.597Z,8.93
2018-09-25T02:49:05.187Z,8.87
2018-09-25T02:51:38.844Z,8.81
2018-09-25T02:54:12.553Z,8.81
2018-09-25T02:56:46.299Z,8.79
2018-09-25T02:59:20.006Z,8.77
2018-09-25T03:01:53.647Z,8.70
2018-09-25T03:04:27.399Z,8.68
2018-09-25T03:07:01.211Z,8.66
2018-09-25T03:09:34.938Z,8.65
2018-09-25T03:12:08.602Z,8.69
2018-09-25T03:14:42.419Z,8.69
2018-09-25T03:17:16.189Z,8.72
2018-09-25T03:19:49.953Z,8.72
2018-09-25T03:22:23.553Z,8.67
2018-09-25T03:24:57.460Z,8.65
2018-09-25T03:27:31.106Z,8.58
2018-09-25T03:30:04.693Z,8.63
2018-09-25T03:32:38.345Z,8.66
2018-09-25T03:35:12.009Z,8.65
2018-09-25T03:37:45.597Z,8.64
2018-09-25T03:40:19.186Z,8.69
2018-09-25T03:42:52.919Z,8.66
2018-09-25T03:45:26.527Z,8.67
2018-09-25T03:48:00.281Z,8.67
2018-09-25T03:50:34.063Z,8.68
2018-09-25T03:53:07.803Z,8.68
2018-09-25T03:55:41.554Z,8.70
2018-09-25T03:58:15.273Z,8.69
2018-09-25T04:00:48.845Z,8.73
2018-09-25T04:03:22.383Z,8.75
2018-09-25T04:05:56.099Z,8.75
2018-09-25T04:08:29.656Z,8.70
2018-09-25T04:11:03.376Z,8.63
2018-09-25T04:13:37.087Z,8.57
2018-09-25T04:16:10.720Z,8.55
2018-09-25T04:18:44.689Z,8.53
2018-09-25T04:21:18.522Z,8.53
2018-09-25T04:23:52.139Z,8.53
2018-09-25T04:26:25.885Z,8.55
2018-09-25T04:28:59.493Z,8.55
2018-09-25T04:31:33.109Z,8.49
2018-09-25T04:34:06.825Z,8.53
2018-09-25T04:36:40.450Z,8.50
2018-09-25T04:39:14.801Z,8.57
2018-09-25T04:41:54.525Z,8.55
2018-09-25T04:44:28.129Z,8.55
2018-09-25T04:47:01.638Z,8.49
2018-09-25T04:49:35.309Z,8.42
2018-09-25T04:52:08.891Z,8.39
2018-09-25T04:54:42.515Z,8.42
2018-09-25T04:57:16.146Z,8.43
2018-09-25T04:59:49.881Z,8.47
2018-09-25T05:02:23.551Z,8.43
2018-09-25T05:04:57.014Z,8.40
2018-09-25T05:07:30.767Z,8.38
2018-09-25T05:10:04.395Z,8.36
2018-09-25T05:12:38.229Z,8.35
2018-09-25T05:15:11.984Z,8.39
2018-09-25T05:17:45.697Z,8.40
2018-09-25T05:20:19.246Z,8.42
2018-09-25T05:22:53.334Z,8.48
2018-09-25T05:25:27.269Z,8.48
2018-09-25T05:28:01.782Z,8.51
2018-09-25T05:30:35.295Z,8.54
2018-09-25T05:33:10.036Z,8.61
2018-09-25T05:35:43.635Z,8.66
2018-09-25T05:38:17.450Z,8.64
2018-09-25T05:40:51.299Z,8.66
2018-09-25T05:43:25.045Z,8.64
2018-09-25T05:45:58.811Z,8.67
2018-09-25T05:48:32.562Z,8.70
2018-09-25T05:51:06.237Z,8.78
2018-09-25T05:53:40.330Z,8.77
2018-09-25T05:56:14.059Z,8.78
2018-09-25T05:58:47.613Z,8.82
2018-09-25T06:01:21.313Z,8.88
2018-09-25T06:03:55.032Z,8.91
2018-09-25T06:06:28.565Z,8.95
2018-09-25T06:09:02.263Z,8.96
2018-09-25T06:11:35.891Z,9.00
2018-09-25T06:14:09.761Z,9.02
2018-09-25T06:16:43.352Z,9.01
2018-09-25T06:19:17.094Z,9.03
2018-09-25T06:21:50.701Z,9.04
2018-09-25T06:24:24.470Z,9.09
2018-09-25T06:26:58.072Z,9.11
2018-09-25T06:29:31.869Z,9.13
2018-09-25T06:32:05.436Z,9.16
2018-09-25T06:34:39.126Z,9.22
2018-09-25T06:37:12.852Z,9.30
2018-09-25T06:39:46.334Z,9.37
2018-09-25T06:42:19.908Z,9.54
2018-09-25T06:44:53.518Z,9.62
2018-09-25T06:47:27.345Z,9.76
2018-09-25T06:50:01.143Z,9.88
2018-09-25T06:52:34.835Z,9.92
2018-09-25T06:55:08.560Z,10.03
2018-09-25T06:57:42.154Z,10.13
2018-09-25T07:00:15.753Z,10.21
2018-09-25T07:02:49.341Z,10.33
2018-09-25T07:05:23.064Z,10.45
2018-09-25T07:07:56.485Z,10.55
2018-09-25T07:10:30.141Z,10.68
2018-09-25T07:13:03.773Z,10.76
2018-09-25T07:15:37.395Z,10.86
2018-09-25T07:18:11.122Z,10.97
2018-09-25T07:20:44.908Z,11.08
2018-09-25T07:23:18.595Z,11.14
2018-09-25T07:25:52.084Z,11.24
2018-09-25T07:28:25.896Z,11.34
2018-09-25T07:31:01.048Z,11.44
2018-09-25T07:33:34.654Z,11.50
2018-09-25T07:36:08.135Z,11.55
2018-09-25T07:38:41.773Z,11.66
2018-09-25T07:41:15.626Z,11.73
2018-09-25T07:43:49.154Z,11.85
2018-09-25T07:46:22.940Z,11.95
2018-09-25T07:48:56.510Z,12.05
2018-09-25T07:51:30.106Z,12.08
2018-09-25T07:54:03.717Z,12.18
2018-09-25T07:56:37.327Z,12.26
2018-09-25T07:59:10.917Z,12.36
2018-09-25T08:01:44.638Z,12.50
2018-09-25T08:04:18.501Z,12.62
2018-09-25T08:06:52.144Z,12.69
2018-09-25T08:09:25.673Z,12.67
2018-09-25T08:11:59.328Z,12.78
2018-09-25T08:14:35.226Z,12.83
2018-09-25T08:17:08.842Z,12.99
2018-09-25T08:19:42.487Z,13.14
2018-09-25T08:22:15.983Z,13.12
2018-09-25T08:24:49.606Z,13.18
2018-09-25T08:27:23.238Z,13.24
2018-09-25T08:29:56.814Z,13.37
2018-09-25T08:32:30.362Z,13.52
2018-09-25T08:35:04.078Z,13.61
2018-09-25T08:37:37.812Z,13.68
2018-09-25T08:40:11.431Z,13.62
2018-09-25T08:42:45.153Z,13.69
2018-09-25T08:45:18.832Z,13.59
2018-09-25T08:47:52.422Z,13.73
2018-09-25T08:50:26.090Z,13.88
2018-09-25T08:52:59.779Z,14.05
2018-09-25T08:55:33.413Z,14.23
2018-09-25T08:58:07.092Z,14.19
2018-09-25T09:00:40.854Z,14.20
2018-09-25T09:03:14.667Z,14.24
2018-09-25T09:05:48.455Z,14.27
2018-09-25T09:08:22.167Z,14.45
2018-09-25T09:10:55.786Z,14.47
2018-09-25T09:13:29.332Z,14.27
2018-09-25T09:16:02.956Z,14.25
2018-09-25T09:18:36.800Z,14.19
2018-09-25T09:21:10.395Z,14.11
2018-09-25T09:23:44.139Z,14.11
2018-09-25T09:26:17.905Z,14.03
2018-09-25T09:28:51.506Z,14.01
2018-09-25T09:31:25.236Z,14.02
2018-09-25T09:33:59.041Z,14.02
2018-09-25T09:36:33.012Z,14.05
2018-09-25T09:39:06.683Z,14.12
2018-09-25T09:41:40.494Z,14.29
2018-09-25T09:44:14.520Z,14.37
2018-09-25T09:46:48.263Z,14.52
2018-09-25T09:49:22.132Z,14.53
2018-09-25T09:51:55.898Z,14.59
2018-09-25T09:54:29.816Z,14.60
2018-09-25T09:57:03.560Z,14.68
2018-09-25T09:59:37.406Z,14.79
2018-09-25T10:02:11.340Z,14.90
2018-09-25T10:04:45.015Z,14.95
2018-09-25T10:07:18.807Z,14.94
2018-09-25T10:09:52.508Z,15.09
2018-09-25T10:12:26.181Z,15.31
2018-09-25T10:14:59.782Z,15.59
2018-09-25T10:17:33.771Z,15.86
2018-09-25T10:20:07.456Z,15.96
2018-09-25T10:22:41.382Z,16.19
2018-09-25T10:25:15.191Z,16.28
2018-09-25T10:27:49.097Z,16.38
2018-09-25T10:30:22.834Z,16.31
2018-09-25T10:32:56.688Z,16.23
2018-09-25T10:35:30.363Z,16.30
2018-09-25T10:38:03.995Z,16.50
2018-09-25T10:40:37.577Z,16.50
2018-09-25T10:43:11.274Z,16.56
2018-09-25T10:45:45.040Z,16.65
2018-09-25T10:48:18.867Z,16.60
2018-09-25T10:50:52.530Z,16.65
2018-09-25T10:53:26.187Z,16.46
2018-09-25T10:56:00.158Z,16.29
2018-09-25T10:58:33.776Z,16.60
2018-09-25T11:01:07.442Z,16.89
2018-09-25T11:03:40.923Z,16.72
2018-09-25T11:06:14.680Z,16.83
2018-09-25T11:08:48.409Z,17.07
2018-09-25T11:11:22.201Z,16.91
2018-09-25T11:13:55.842Z,16.70
2018-09-25T11:16:29.730Z,16.49
2018-09-25T11:19:03.522Z,16.42
2018-09-25T11:21:37.403Z,16.21
2018-09-25T11:24:11.052Z,16.22
2018-09-25T11:26:45.188Z,16.13
2018-09-25T11:29:18.761Z,16.06
2018-09-25T11:31:52.474Z,16.02
2018-09-25T11:34:26.268Z,15.93
2018-09-25T11:37:00.132Z,15.88
2018-09-25T11:39:33.842Z,15.84
2018-09-25T11:42:07.669Z,15.97
2018-09-25T11:44:41.446Z,15.81
2018-09-25T11:47:15.336Z,16.04
2018-09-25T11:49:49.079Z,16.36
2018-09-25T11:52:22.853Z,16.74
2018-09-25T11:54:56.374Z,17.16
2018-09-25T11:57:36.800Z,17.29
2018-09-25T12:00:10.711Z,17.57
2018-09-25T12:02:44.449Z,17.66
2018-09-25T12:05:18.179Z,17.72
2018-09-25T12:07:52.025Z,17.42
2018-09-25T12:10:25.901Z,17.40
2018-09-25T12:12:59.964Z,17.47
2018-09-25T12:15:33.655Z,17.41
2018-09-25T12:18:07.553Z,17.54
2018-09-25T12:20:41.219Z,17.81
2018-09-25T12:23:15.065Z,18.02
2018-09-25T12:25:48.765Z,17.96
2018-09-25T12:28:22.520Z,18.04
2018-09-25T12:30:56.180Z,17.54
2018-09-25T12:33:30.275Z,17.66
2018-09-25T12:36:03.962Z,17.96
2018-09-25T12:38:38.062Z,18.21
2018-09-25T12:41:12.028Z,18.34
2018-09-25T12:43:45.959Z,18.50
2018-09-25T12:46:19.633Z,18.11
2018-09-25T12:48:53.528Z,17.67
2018-09-25T12:51:27.443Z,17.30
2018-09-25T12:54:01.293Z,17.11
2018-09-25T12:56:35.142Z,16.86
2018-09-25T12:59:08.862Z,16.64
2018-09-25T13:01:42.766Z,16.52
2018-09-25T13:04:16.796Z,16.48
2018-09-25T13:06:51.017Z,16.43
2018-09-25T13:09:26.292Z,16.42
2018-09-25T13:12:01.021Z,16.40
2018-09-25T13:14:36.250Z,16.39
2018-09-25T13:17:10.840Z,16.44
2018-09-25T13:19:45.085Z,16.38
2018-09-25T13:22:18.776Z,16.39
2018-09-25T13:24:52.370Z,16.36
2018-09-25T13:27:26.093Z,16.44
2018-09-25T13:29:59.920Z,16.50
2018-09-25T13:32:33.599Z,16.43
2018-09-25T13:35:07.261Z,16.44
2018-09-25T13:37:41.057Z,16.44
2018-09-25T13:40:14.880Z,16.34
2018-09-25T13:42:48.530Z,16.19
2018-09-25T13:45:22.590Z,16.18
2018-09-25T13:47:56.381Z,16.14
2018-09-25T13:50:30.245Z,16.15
2018-09-25T13:53:04.010Z,16.07
2018-09-25T13:55:37.894Z,16.09
2018-09-25T13:58:11.506Z,16.13
2018-09-25T14:00:45.518Z,16.18
2018-09-25T14:03:19.395Z,16.27
2018-09-25T14:05:53.017Z,16.33
2018-09-25T14:08:26.636Z,16.33
2018-09-25T14:11:00.745Z,16.32
2018-09-25T14:13:34.662Z,16.35
2018-09-25T14:16:08.312Z,16.28
2018-09-25T14:18:42.159Z,16.28
2018-09-25T14:21:16.056Z,16.30
2018-09-25T14:23:49.840Z,16.26
2018-09-25T14:26:23.632Z,16.27
2018-09-25T14:28:57.500Z,16.31
2018-09-25T14:31:31.384Z,16.36
2018-09-25T14:34:05.366Z,16.35
2018-09-25T14:36:39.238Z,16.31
2018-09-25T14:46:25.211Z,16.04
2018-09-25T14:48:58.928Z,16.03
2018-09-25T14:51:32.560Z,16.00
2018-09-25T14:54:06.745Z,16.04
2018-09-25T14:56:40.575Z,16.01
2018-09-25T14:59:14.538Z,16.06
2018-09-25T15:01:48.243Z,16.12
2018-09-25T15:04:21.868Z,16.15
2018-09-25T15:06:56.135Z,16.21
2018-09-25T15:09:29.897Z,16.23
2018-09-25T15:12:03.848Z,16.26
2018-09-25T15:14:37.723Z,16.29
2018-09-25T15:17:12.055Z,16.39
2018-09-25T15:19:46.018Z,16.39
2018-09-25T15:22:20.127Z,16.38
2018-09-25T15:24:53.934Z,16.28
2018-09-25T15:27:27.963Z,16.27
2018-09-25T15:30:01.738Z,16.19
2018-09-25T15:32:35.571Z,16.14
2018-09-25T15:35:09.309Z,16.02
2018-09-25T15:37:43.229Z,15.98
2018-09-25T15:40:17.138Z,15.96
2018-09-25T15:42:50.898Z,15.97
2018-09-25T15:45:24.550Z,15.91
2018-09-25T15:47:58.754Z,15.89
2018-09-25T15:50:32.521Z,15.88
2018-09-25T15:53:06.328Z,15.87
2018-09-25T15:55:40.105Z,15.88
2018-09-25T15:58:15.006Z,15.90
2018-09-25T16:00:48.777Z,15.88
2018-09-25T16:03:22.474Z,15.88
2018-09-25T16:05:56.219Z,15.92
2018-09-25T16:08:30.052Z,15.88
2018-09-25T16:11:04.014Z,15.87
2018-09-25T16:13:37.796Z,15.87
2018-09-25T16:16:12.078Z,15.84
2018-09-25T16:18:45.775Z,15.88
2018-09-25T16:21:19.734Z,15.80
2018-09-25T16:23:53.827Z,15.74
2018-09-25T16:26:27.699Z,15.70
2018-09-25T16:29:01.338Z,15.67
2018-09-25T16:31:35.320Z,15.66
2018-09-25T16:34:09.543Z,15.61
2018-09-25T16:36:43.239Z,15.63
2018-09-25T16:39:17.298Z,15.59
2018-09-25T16:41:51.165Z,15.62
2018-09-25T16:44:25.414Z,15.61
2018-09-25T16:46:59.326Z,15.60
2018-09-25T16:49:33.270Z,15.61
2018-09-25T16:52:07.203Z,15.59
2018-09-25T16:57:23.633Z,15.54
2018-09-25T16:59:57.474Z,15.51
2018-09-25T17:02:31.627Z,15.50
2018-09-25T17:05:05.328Z,15.53
2018-09-25T17:07:39.341Z,15.47
2018-09-25T17:10:13.203Z,15.40
2018-09-25T17:12:47.251Z,15.38
2018-09-25T17:15:21.336Z,15.35
2018-09-25T17:17:55.302Z,15.35
2018-09-25T17:20:29.120Z,15.41
2018-09-25T17:23:02.917Z,15.41
2018-09-25T17:25:37.192Z,15.38
2018-09-25T17:28:11.010Z,15.39
2018-09-25T17:30:44.844Z,15.40
2018-09-25T17:33:18.707Z,15.42
2018-09-25T17:35:53.004Z,15.35
2018-09-25T17:38:27.038Z,15.37
2018-09-25T17:41:01.103Z,15.35
2018-09-25T17:43:35.175Z,15.34
2018-09-25T17:46:09.019Z,15.36
2018-09-25T17:48:42.803Z,15.33
2018-09-25T17:51:16.806Z,15.34
2018-09-25T17:53:50.970Z,15.33
2018-09-25T17:56:25.321Z,15.32
2018-09-25T17:58:59.110Z,15.32
2018-09-25T18:01:33.465Z,15.36
2018-09-25T18:04:08.172Z,15.39
2018-09-25T18:06:42.689Z,15.37
2018-09-25T18:09:16.948Z,15.37
2018-09-25T18:11:51.422Z,15.35
2018-09-25T18:14:26.058Z,15.31
2018-09-25T18:17:00.166Z,15.32
2018-09-25T18:19:34.489Z,15.37
2018-09-25T18:22:08.257Z,15.35
2018-09-25T18:24:43.137Z,15.36
2018-09-25T18:27:16.940Z,15.35
2018-09-25T18:29:51.305Z,15.29
2018-09-25T18:32:25.326Z,15.28
2018-09-25T18:34:59.979Z,15.26
2018-09-25T18:37:34.122Z,15.29
2018-09-25T18:40:08.325Z,15.28
2018-09-25T18:42:42.470Z,15.27
2018-09-25T18:45:17.294Z,15.23
2018-09-25T18:47:51.669Z,15.25
2018-09-25T18:50:26.219Z,15.29
2018-09-25T18:53:00.832Z,15.27
2018-09-25T18:55:34.951Z,15.22
2018-09-25T18:58:09.565Z,15.19
2018-09-25T19:00:43.950Z,15.17
2018-09-25T19:03:18.096Z,15.15
2018-09-25T19:05:52.591Z,15.15
2018-09-25T19:08:32.577Z,15.20
2018-09-25T19:11:06.936Z,15.16
2018-09-25T19:13:41.194Z,15.18
2018-09-25T19:16:15.963Z,15.16
2018-09-25T19:18:50.329Z,15.19
2018-09-25T19:21:25.237Z,15.15
2018-09-25T19:23:59.349Z,15.14
2018-09-25T19:26:34.181Z,15.04
2018-09-25T19:29:08.167Z,15.03
2018-09-25T19:31:42.687Z,15.05
2018-09-25T19:34:17.228Z,15.00
2018-09-25T19:36:51.608Z,14.97
2018-09-25T19:39:25.663Z,14.92
2018-09-25T19:41:59.710Z,14.96
2018-09-25T19:44:33.701Z,14.95
2018-09-25T19:47:07.588Z,14.91
2018-09-25T19:49:42.217Z,14.91
2018-09-25T19:52:16.522Z,14.86
2018-09-25T19:54:50.829Z,14.86
2018-09-25T19:57:25.321Z,14.85
2018-09-25T19:59:59.456Z,14.85
2018-09-25T20:02:33.510Z,14.79
2018-09-25T20:05:07.832Z,14.73
2018-09-25T20:07:42.786Z,14.73
2018-09-25T20:10:17.645Z,14.72
2018-09-25T20:12:51.859Z,14.69
2018-09-25T20:15:25.894Z,14.69
2018-09-25T20:18:00.512Z,14.67
2018-09-25T20:20:34.686Z,14.68
2018-09-25T20:23:08.991Z,14.67
2018-09-25T20:25:43.383Z,14.46
2018-09-25T20:28:18.447Z,14.45
2018-09-25T20:30:53.355Z,14.44
2018-09-25T20:33:27.627Z,14.40
2018-09-25T20:36:01.845Z,14.33
2018-09-25T20:38:36.501Z,14.31
2018-09-25T20:41:10.874Z,14.27
2018-09-25T20:43:45.303Z,14.29
2018-09-25T20:46:19.576Z,14.25
2018-09-25T20:48:54.007Z,14.26
2018-09-25T20:51:28.285Z,14.25
2018-09-25T20:54:02.842Z,14.25
2018-09-25T20:56:36.659Z,14.26
2018-09-25T20:59:10.829Z,14.27
2018-09-25T21:01:45.188Z,14.15
2018-09-25T21:04:19.598Z,14.12
2018-09-25T21:06:53.998Z,14.03
2018-09-25T21:09:28.061Z,13.96
2018-09-25T21:12:02.015Z,14.05
2018-09-25T21:14:36.292Z,13.97
2018-09-25T21:17:10.724Z,13.90
2018-09-25T21:19:44.993Z,13.94
2018-09-25T21:22:19.109Z,13.91
2018-09-25T21:24:52.935Z,13.81
2018-09-25T21:27:27.097Z,13.83
2018-09-25T21:30:00.972Z,13.87
2018-09-25T21:32:34.840Z,13.86
2018-09-25T21:35:08.847Z,13.84
2018-09-25T21:37:42.640Z,13.88
2018-09-25T21:40:16.529Z,13.88
2018-09-25T21:42:49.960Z,13.87
2018-09-25T21:45:23.936Z,13.91
2018-09-25T21:47:57.777Z,13.88
2018-09-25T21:50:31.545Z,13.88
2018-09-25T21:53:05.194Z,13.90
2018-09-25T21:55:39.223Z,13.89
2018-09-25T21:58:13.021Z,13.86
2018-09-25T22:00:46.862Z,13.83
2018-09-25T22:03:20.664Z,13.71
2018-09-25T22:05:54.578Z,13.71
2018-09-25T22:08:28.351Z,13.71
2018-09-25T22:11:02.301Z,13.69
2018-09-25T22:13:36.052Z,13.66
2018-09-25T22:16:09.940Z,13.71
2018-09-25T22:18:43.644Z,13.73
2018-09-25T22:21:17.511Z,13.76
2018-09-25T22:23:51.354Z,13.76
2018-09-25T22:26:25.027Z,13.69
2018-09-25T22:28:58.859Z,13.74
2018-09-25T22:31:32.794Z,13.71
2018-09-25T22:34:06.446Z,13.62
2018-09-25T22:36:40.561Z,13.68
2018-09-25T22:39:15.172Z,13.67
2018-09-25T22:41:49.172Z,13.61
2018-09-25T22:44:23.046Z,13.55
2018-09-25T22:46:56.930Z,13.52
2018-09-25T22:49:30.618Z,13.56
2018-09-25T22:52:04.519Z,13.52
2018-09-25T22:54:38.810Z,13.55
2018-09-25T22:57:12.479Z,13.60
2018-09-25T22:59:46.320Z,13.64
2018-09-25T23:02:20.313Z,13.57
2018-09-25T23:04:53.917Z,13.51
2018-09-25T23:07:27.823Z,13.49
2018-09-25T23:10:01.380Z,13.48
2018-09-25T23:12:34.932Z,13.50
2018-09-25T23:15:08.774Z,13.51
2018-09-25T23:17:42.597Z,13.46
2018-09-25T23:20:16.208Z,13.46
2018-09-25T23:22:50.071Z,13.44
2018-09-25T23:25:23.789Z,13.47
2018-09-25T23:27:57.534Z,13.43
2018-09-25T23:30:31.275Z,13.42
2018-09-25T23:33:04.946Z,13.42
2018-09-25T23:35:38.656Z,13.33
2018-09-25T23:38:12.289Z,13.35
2018-09-25T23:40:45.957Z,13.42
2018-09-25T23:43:18.881Z,13.32
2018-09-25T23:46:55.089Z,13.39
2018-09-25T23:49:31.049Z,13.36
2018-09-25T23:52:09.991Z,13.32
2018-09-25T23:54:47.700Z,13.33
2018-09-25T23:57:21.272Z,13.36
